Time,TemperatureF,DewpointF,PressureIn,WindDirection,WindDirectionDegrees,WindSpeedMPH,WindSpeedGustMPH,Humidity,HourlyPrecipIn,Conditions,Clouds,dailyrainin,SoftwareType,DateUTC
2013-04-26 00:10:00,44.7,33.0,30.25,West,265,0.0,0.0,63,0.00,,,0.00,weatherlink.com 1.10,2013-04-26 04:10:00,
2013-04-26 00:25:00,44.5,32.0,30.26,West,267,0.0,0.0,61,0.00,,,0.00,weatherlink.com 1.10,2013-04-26 04:25:00,
2013-04-26 00:40:00,44.7,31.0,30.27,West,268,0.0,0.0,58,0.00,,,0.00,weatherlink.com 1.10,2013-04-26 04:40:00,
2013-04-26 00:55:00,44.3,30.0,30.27,West,268,0.0,0.0,58,0.00,,,0.00,weatherlink.com 1.10,2013-04-26 04:55:00,
2013-04-26 01:11:00,44.1,30.0,30.27,West,268,0.0,0.0,59,0.00,,,0.00,weatherlink.com 1.10,2013-04-26 05:11:00,
2013-04-26 01:26:00,43.3,30.0,30.27,West,267,0.0,0.0,61,0.00,,,0.00,weatherlink.com 1.10,2013-04-26 05:26:00,
2013-04-26 01:41:00,42.6,30.0,30.28,West,268,0.0,0.0,62,0.00,,,0.00,weatherlink.com 1.10,2013-04-26 05:41:00,
2013-04-26 01:56:00,41.9,30.0,30.28,West,268,0.0,0.0,63,0.00,,,0.00,weatherlink.com 1.10,2013-04-26 05:56:00,
2013-04-26 02:11:00,41.0,30.0,30.27,West,267,0.0,0.0,66,0.00,,,0.00,weatherlink.com 1.10,2013-04-26 06:11:00,
2013-04-26 02:26:00,40.5,31.0,30.27,West,267,0.0,0.0,68,0.00,,,0.00,weatherlink.com 1.10,2013-04-26 06:26:00,
2013-04-26 02:41:00,39.9,31.0,30.27,West,268,0.0,0.0,70,0.00,,,0.00,weatherlink.com 1.10,2013-04-26 06:41:00,
2013-04-26 02:56:00,39.2,31.0,30.28,West,268,0.0,0.0,71,0.00,,,0.00,weatherlink.com 1.10,2013-04-26 06:56:00,
2013-04-26 03:11:00,38.9,31.0,30.28,West,268,0.0,0.0,74,0.00,,,0.00,weatherlink.com 1.10,2013-04-26 07:11:00,
2013-04-26 03:26:00,38.7,31.0,30.29,West,268,0.0,0.0,75,0.00,,,0.00,weatherlink.com 1.10,2013-04-26 07:26:00,
2013-04-26 03:41:00,38.1,32.0,30.29,West,267,0.0,0.0,77,0.00,,,0.00,weatherlink.com 1.10,2013-04-26 07:41:00,
2013-04-26 03:56:00,38.4,32.0,30.30,West,268,0.0,0.0,79,0.00,,,0.00,weatherlink.com 1.10,2013-04-26 07:56:00,
2013-04-26 04:11:00,38.5,33.0,30.30,West,268,0.0,0.0,80,0.00,,,0.00,weatherlink.com 1.10,2013-04-26 08:11:00,
2013-04-26 04:26:00,37.8,32.0,30.31,West,267,0.0,0.0,80,0.00,,,0.00,weatherlink.com 1.10,2013-04-26 08:26:00,
2013-04-26 04:41:00,37.9,33.0,30.31,West,268,0.0,0.0,82,0.00,,,0.00,weatherlink.com 1.10,2013-04-26 08:41:00,
2013-04-26 04:56:00,37.8,32.0,30.31,West,267,0.0,0.0,80,0.00,,,0.00,weatherlink.com 1.10,2013-04-26 08:56:00,
2013-04-26 05:11:00,38.1,32.0,30.32,West,268,0.0,0.0,80,0.00,,,0.00,weatherlink.com 1.10,2013-04-26 09:11:00,
2013-04-26 05:26:00,38.4,32.0,30.32,West,268,0.0,0.0,79,0.00,,,0.00,weatherlink.com 1.10,2013-04-26 09:26:00,
2013-04-26 05:41:00,38.9,32.0,30.33,West,267,0.0,0.0,76,0.00,,,0.00,weatherlink.com 1.10,2013-04-26 09:41:00,
2013-04-26 05:56:00,39.5,33.0,30.34,West,259,0.0,0.0,76,0.00,,,0.00,weatherlink.com 1.10,2013-04-26 09:56:00,
2013-04-26 06:11:00,39.7,32.0,30.34,West,260,0.0,1.0,75,0.00,,,0.00,weatherlink.com 1.10,2013-04-26 10:11:00,
2013-04-26 06:26:00,39.9,33.0,30.35,West,260,0.0,0.0,76,0.00,,,0.00,weatherlink.com 1.10,2013-04-26 10:26:00,
2013-04-26 06:41:00,40.5,33.0,30.36,NNW,337,0.0,2.0,75,0.00,,,0.00,weatherlink.com 1.10,2013-04-26 10:41:00,
2013-04-26 06:56:00,44.5,33.0,30.36,NW,326,0.0,5.0,65,0.00,,,0.00,weatherlink.com 1.10,2013-04-26 10:56:00,
2013-04-26 07:11:00,47.3,33.0,30.36,WNW,297,2.0,5.0,58,0.00,,,0.00,weatherlink.com 1.10,2013-04-26 11:11:00,
2013-04-26 07:27:00,48.8,33.0,30.37,SE,138,1.0,7.0,55,0.00,,,0.00,weatherlink.com 1.10,2013-04-26 11:27:00,
2013-04-26 07:42:00,49.9,33.0,30.37,North,349,2.0,4.0,53,0.00,,,0.00,weatherlink.com 1.10,2013-04-26 11:42:00,
2013-04-26 07:57:00,50.9,33.0,30.37,West,265,1.0,5.0,51,0.00,,,0.00,weatherlink.com 1.10,2013-04-26 11:57:00,
2013-04-26 08:12:00,52.3,33.0,30.37,SSE,155,1.0,9.0,48,0.00,,,0.00,weatherlink.com 1.10,2013-04-26 12:12:00,
2013-04-26 08:27:00,53.4,33.0,30.37,SSE,163,1.0,6.0,46,0.00,,,0.00,weatherlink.com 1.10,2013-04-26 12:27:00,
2013-04-26 08:42:00,53.9,33.0,30.37,East,97,3.0,11.0,45,0.00,,,0.00,weatherlink.com 1.10,2013-04-26 12:42:00,
2013-04-26 08:57:00,54.2,33.0,30.38,ESE,115,2.0,5.0,44,0.00,,,0.00,weatherlink.com 1.10,2013-04-26 12:57:00,
2013-04-26 09:12:00,54.9,33.0,30.38,ESE,120,0.0,8.0,44,0.00,,,0.00,weatherlink.com 1.10,2013-04-26 13:12:00,
2013-04-26 09:27:00,54.8,32.0,30.38,ESE,113,3.0,13.0,42,0.00,,,0.00,weatherlink.com 1.10,2013-04-26 13:27:00,
2013-04-26 09:42:00,55.1,33.0,30.38,ESE,115,3.0,6.0,44,0.00,,,0.00,weatherlink.com 1.10,2013-04-26 13:42:00,
2013-04-26 09:57:00,54.6,33.0,30.39,ESE,115,4.0,11.0,45,0.00,,,0.00,weatherlink.com 1.10,2013-04-26 13:57:00,
2013-04-26 10:12:00,54.9,33.0,30.39,SSE,148,3.0,13.0,44,0.00,,,0.00,weatherlink.com 1.10,2013-04-26 14:12:00,
2013-04-26 10:27:00,55.6,34.0,30.39,ESE,117,5.0,7.0,44,0.00,,,0.00,weatherlink.com 1.10,2013-04-26 14:27:00,
2013-04-26 10:42:00,55.8,34.0,30.39,NNW,347,3.0,8.0,44,0.00,,,0.00,weatherlink.com 1.10,2013-04-26 14:42:00,
2013-04-26 10:57:00,56.3,34.0,30.39,East,89,2.0,8.0,43,0.00,,,0.00,weatherlink.com 1.10,2013-04-26 14:57:00,
2013-04-26 11:12:00,57.2,34.0,30.39,NW,325,5.0,8.0,42,0.00,,,0.00,weatherlink.com 1.10,2013-04-26 15:12:00,
2013-04-26 11:27:00,57.1,35.0,30.39,East,89,2.0,9.0,43,0.00,,,0.00,weatherlink.com 1.10,2013-04-26 15:27:00,
2013-04-26 11:42:00,58.5,36.0,30.39,NE,43,0.0,5.0,43,0.00,,,0.00,weatherlink.com 1.10,2013-04-26 15:42:00,
2013-04-26 11:57:00,57.8,35.0,30.39,NE,34,1.0,9.0,43,0.00,,,0.00,weatherlink.com 1.10,2013-04-26 15:57:00,
2013-04-26 12:12:00,58.1,35.0,30.38,NE,34,4.0,8.0,43,0.00,,,0.00,weatherlink.com 1.10,2013-04-26 16:12:00,
2013-04-26 12:27:00,57.9,36.0,30.38,ESE,119,2.0,8.0,44,0.00,,,0.00,weatherlink.com 1.10,2013-04-26 16:27:00,
2013-04-26 12:42:00,58.4,36.0,30.37,SE,146,2.0,8.0,43,0.00,,,0.00,weatherlink.com 1.10,2013-04-26 16:42:00,
2013-04-26 12:57:00,58.8,37.0,30.37,SE,135,4.0,7.0,44,0.00,,,0.00,weatherlink.com 1.10,2013-04-26 16:57:00,
2013-04-26 13:12:00,59.0,36.0,30.36,ESE,105,4.0,6.0,43,0.00,,,0.00,weatherlink.com 1.10,2013-04-26 17:12:00,
2013-04-26 13:27:00,59.2,36.0,30.36,NNW,327,1.0,8.0,42,0.00,,,0.00,weatherlink.com 1.10,2013-04-26 17:27:00,
2013-04-26 13:42:00,59.1,36.0,30.35,NNE,19,3.0,8.0,42,0.00,,,0.00,weatherlink.com 1.10,2013-04-26 17:42:00,
2013-04-26 13:57:00,59.5,34.0,30.35,NW,319,2.0,9.0,39,0.00,,,0.00,weatherlink.com 1.10,2013-04-26 17:57:00,
2013-04-26 14:12:00,58.7,34.0,30.36,NNW,348,1.0,9.0,40,0.00,,,0.00,weatherlink.com 1.10,2013-04-26 18:12:00,
2013-04-26 14:27:00,57.8,35.0,30.36,East,90,13.0,13.0,42,0.00,,,0.00,weatherlink.com 1.10,2013-04-26 18:27:00,
2013-04-26 14:42:00,57.1,36.0,30.36,SE,132,6.0,7.0,45,0.00,,,0.00,weatherlink.com 1.10,2013-04-26 18:42:00,
2013-04-26 14:57:00,57.5,36.0,30.35,East,98,2.0,9.0,44,0.00,,,0.00,weatherlink.com 1.10,2013-04-26 18:57:00,
2013-04-26 15:12:00,57.8,36.0,30.36,NNW,344,3.0,11.0,44,0.00,,,0.00,weatherlink.com 1.10,2013-04-26 19:12:00,
2013-04-26 15:27:00,57.4,35.0,30.36,SE,136,0.0,10.0,44,0.00,,,0.00,weatherlink.com 1.10,2013-04-26 19:27:00,
2013-04-26 15:42:00,57.0,36.0,30.36,East,98,2.0,8.0,45,0.00,,,0.00,weatherlink.com 1.10,2013-04-26 19:42:00,
2013-04-26 15:57:00,57.7,37.0,30.35,East,82,1.0,8.0,46,0.00,,,0.00,weatherlink.com 1.10,2013-04-26 19:57:00,
2013-04-26 16:12:00,57.1,36.0,30.36,ESE,105,4.0,8.0,45,0.00,,,0.00,weatherlink.com 1.10,2013-04-26 20:12:00,
2013-04-26 16:27:00,56.0,36.0,30.36,NE,50,1.0,7.0,47,0.00,,,0.00,weatherlink.com 1.10,2013-04-26 20:27:00,
2013-04-26 16:42:00,56.2,36.0,30.35,ESE,105,2.0,11.0,47,0.00,,,0.00,weatherlink.com 1.10,2013-04-26 20:42:00,
2013-04-26 16:57:00,55.5,35.0,30.36,WNW,301,1.0,6.0,47,0.00,,,0.00,weatherlink.com 1.10,2013-04-26 20:57:00,
2013-04-26 17:12:00,55.1,36.0,30.36,NW,304,1.0,7.0,49,0.00,,,0.00,weatherlink.com 1.10,2013-04-26 21:12:00,
2013-04-26 17:27:00,54.7,37.0,30.36,ESE,119,2.0,7.0,51,0.00,,,0.00,weatherlink.com 1.10,2013-04-26 21:27:00,
2013-04-26 17:42:00,53.7,37.0,30.36,SE,134,1.0,5.0,54,0.00,,,0.00,weatherlink.com 1.10,2013-04-26 21:42:00,
2013-04-26 17:57:00,52.9,37.0,30.37,East,84,2.0,7.0,56,0.00,,,0.00,weatherlink.com 1.10,2013-04-26 21:57:00,
2013-04-26 18:13:00,52.4,38.0,30.37,ENE,64,0.0,3.0,59,0.00,,,0.00,weatherlink.com 1.10,2013-04-26 22:13:00,
2013-04-26 18:28:00,51.7,38.0,30.37,East,90,0.0,5.0,59,0.00,,,0.00,weatherlink.com 1.10,2013-04-26 22:28:00,
2013-04-26 18:43:00,51.3,39.0,30.38,East,94,2.0,4.0,63,0.00,,,0.00,weatherlink.com 1.10,2013-04-26 22:43:00,
2013-04-26 18:58:00,50.8,38.0,30.38,SSE,155,0.0,3.0,63,0.00,,,0.00,weatherlink.com 1.10,2013-04-26 22:58:00,
2013-04-26 19:13:00,50.0,39.0,30.38,ESE,107,1.0,3.0,66,0.00,,,0.00,weatherlink.com 1.10,2013-04-26 23:13:00,
2013-04-26 19:28:00,49.2,39.0,30.39,SE,126,0.0,3.0,69,0.00,,,0.00,weatherlink.com 1.10,2013-04-26 23:28:00,
2013-04-26 19:43:00,48.6,39.0,30.39,East,95,0.0,4.0,69,0.00,,,0.00,weatherlink.com 1.10,2013-04-26 23:43:00,
2013-04-26 20:13:00,47.5,40.0,30.40,NW,326,0.0,1.0,74,0.00,,,0.00,weatherlink.com 1.10,2013-04-27 00:13:00,
2013-04-26 20:28:00,47.3,40.0,30.41,NNE,13,0.0,4.0,76,0.00,,,0.00,weatherlink.com 1.10,2013-04-27 00:28:00,
2013-04-26 20:43:00,47.1,41.0,30.41,ESE,105,0.0,2.0,78,0.00,,,0.00,weatherlink.com 1.10,2013-04-27 00:43:00,
2013-04-26 20:58:00,46.7,41.0,30.41,ESE,105,0.0,2.0,79,0.00,,,0.00,weatherlink.com 1.10,2013-04-27 00:58:00,
2013-04-26 21:13:00,46.6,41.0,30.41,SE,138,0.0,1.0,80,0.00,,,0.00,weatherlink.com 1.10,2013-04-27 01:13:00,
2013-04-26 21:28:00,46.3,41.0,30.41,North,350,0.0,1.0,81,0.00,,,0.00,weatherlink.com 1.10,2013-04-27 01:28:00,
2013-04-26 21:43:00,45.8,41.0,30.41,NW,312,0.0,1.0,82,0.00,,,0.00,weatherlink.com 1.10,2013-04-27 01:43:00,
2013-04-26 21:58:00,45.5,41.0,30.41,NNW,338,0.0,0.0,83,0.00,,,0.00,weatherlink.com 1.10,2013-04-27 01:58:00,
2013-04-26 22:13:00,45.3,40.0,30.41,NNW,339,0.0,1.0,83,0.00,,,0.00,weatherlink.com 1.10,2013-04-27 02:13:00,
2013-04-26 22:28:00,45.2,40.0,30.41,NW,326,0.0,0.0,83,0.00,,,0.00,weatherlink.com 1.10,2013-04-27 02:28:00,
2013-04-26 22:43:00,44.9,40.0,30.41,NW,325,0.0,0.0,84,0.00,,,0.00,weatherlink.com 1.10,2013-04-27 02:43:00,
2013-04-26 22:58:00,44.4,40.0,30.41,NW,326,0.0,0.0,85,0.00,,,0.00,weatherlink.com 1.10,2013-04-27 02:58:00,
2013-04-26 23:13:00,44.2,40.0,30.41,NW,326,0.0,0.0,86,0.00,,,0.00,weatherlink.com 1.10,2013-04-27 03:13:00,
2013-04-26 23:28:00,44.2,40.0,30.41,NW,326,0.0,0.0,86,0.00,,,0.00,weatherlink.com 1.10,2013-04-27 03:28:00,
2013-04-26 23:43:00,44.4,40.0,30.40,NW,326,0.0,0.0,85,0.00,,,0.00,weatherlink.com 1.10,2013-04-27 03:43:00,
2013-04-26 23:58:00,44.0,40.0,30.41,NW,326,0.0,0.0,86,0.00,,,0.00,weatherlink.com 1.10,2013-04-27 03:58:00,